createdAt,value
2019-05-30T00:01:15.817Z,7.42
2019-05-30T00:03:46.664Z,6.87
2019-05-30T00:06:17.463Z,6.28
2019-05-30T00:08:48.402Z,5.50
2019-05-30T00:11:20.384Z,4.67
2019-05-30T00:13:51.378Z,3.83
2019-05-30T00:16:22.131Z,2.90
2019-05-30T00:18:52.985Z,3.10
2019-05-30T00:21:24.821Z,2.17
2019-05-30T00:23:55.806Z,2.30
2019-05-30T00:26:27.910Z,2.40
2019-05-30T00:28:58.794Z,1.87
2019-05-30T00:31:29.586Z,1.73
2019-05-30T00:34:02.326Z,2.00
2019-05-30T00:36:34.245Z,2.10
2019-05-30T00:39:06.646Z,1.80
2019-05-30T00:41:37.494Z,1.60
2019-05-30T00:44:09.438Z,1.90
2019-05-30T00:46:42.034Z,1.90
2019-05-30T00:49:12.903Z,1.63
2019-05-30T00:51:43.692Z,1.83
2019-05-30T00:54:14.672Z,1.70
2019-05-30T00:56:45.585Z,1.80
2019-05-30T00:59:16.439Z,1.63
2019-05-30T01:04:56.988Z,2.20
2019-05-30T01:07:46.106Z,2.30
2019-05-30T01:10:17.697Z,2.10
2019-05-30T01:12:48.500Z,2.40
2019-05-30T01:15:21.687Z,2.57
2019-05-30T01:17:52.577Z,2.43
2019-05-30T01:20:23.636Z,2.60
2019-05-30T01:22:54.531Z,2.40
2019-05-30T01:25:25.298Z,2.97
2019-05-30T01:27:57.303Z,2.67
2019-05-30T01:30:28.253Z,2.17
2019-05-30T01:32:59.647Z,2.20
2019-05-30T01:35:30.544Z,2.27
2019-05-30T01:38:02.126Z,2.03
2019-05-30T01:40:33.068Z,2.00
2019-05-30T01:43:04.125Z,2.60
2019-05-30T01:45:35.372Z,2.10
2019-05-30T01:48:06.513Z,2.47
2019-05-30T01:50:37.375Z,2.80
2019-05-30T01:53:08.834Z,2.20
2019-05-30T01:55:40.966Z,2.27
2019-05-30T01:58:11.735Z,2.53
2019-05-30T02:00:42.640Z,2.20
2019-05-30T02:03:13.425Z,2.17
2019-05-30T02:05:44.193Z,2.85
2019-05-30T02:08:14.972Z,2.80
2019-05-30T02:10:45.737Z,2.53
2019-05-30T02:13:16.541Z,2.50
2019-05-30T02:15:47.417Z,2.85
2019-05-30T02:18:18.203Z,2.72
2019-05-30T02:20:48.967Z,2.50
2019-05-30T02:23:19.793Z,2.27
2019-05-30T02:25:50.641Z,2.10
2019-05-30T02:28:21.425Z,2.20
2019-05-30T02:30:52.243Z,2.63
2019-05-30T02:33:24.118Z,2.50
2019-05-30T02:35:55.840Z,2.73
2019-05-30T02:38:26.768Z,2.50
2019-05-30T02:40:57.916Z,2.43
2019-05-30T02:43:28.731Z,2.83
2019-05-30T02:46:00.844Z,2.77
2019-05-30T02:48:31.923Z,2.33
2019-05-30T02:51:03.375Z,2.50
2019-05-30T02:53:34.340Z,2.67
2019-05-30T02:56:06.382Z,2.53
2019-05-30T02:58:38.307Z,2.50
2019-05-30T03:01:11.159Z,2.47
2019-05-30T03:03:41.788Z,2.77
2019-05-30T03:06:13.880Z,2.30
2019-05-30T03:08:44.943Z,2.67
2019-05-30T03:11:16.042Z,2.47
2019-05-30T03:13:47.083Z,2.60
2019-05-30T03:16:18.066Z,2.60
2019-05-30T03:18:50.160Z,2.70
2019-05-30T03:21:20.947Z,2.57
2019-05-30T03:23:51.767Z,2.57
2019-05-30T03:26:22.534Z,2.60
2019-05-30T03:28:53.700Z,2.50
2019-05-30T03:31:29.373Z,2.20
2019-05-30T03:33:58.836Z,2.43
2019-05-30T03:36:31.755Z,2.77
2019-05-30T03:39:03.271Z,2.33
2019-05-30T03:41:34.209Z,2.40
2019-05-30T03:44:06.044Z,2.83
2019-05-30T03:46:41.118Z,2.37
2019-05-30T03:49:15.238Z,2.97
2019-05-30T03:51:48.358Z,2.90
2019-05-30T03:54:20.098Z,2.47
2019-05-30T03:56:56.187Z,2.70
2019-05-30T03:59:32.413Z,2.77
2019-05-30T04:02:15.723Z,3.00
2019-05-30T04:04:52.297Z,3.00
2019-05-30T04:07:26.743Z,2.60
2019-05-30T04:10:00.452Z,2.70
2019-05-30T04:13:01.029Z,3.03
2019-05-30T04:15:33.365Z,3.00
2019-05-30T04:18:04.186Z,2.90
2019-05-30T04:20:34.921Z,3.00
2019-05-30T04:23:05.998Z,3.00
2019-05-30T04:25:36.815Z,2.50
2019-05-30T04:28:07.911Z,2.90
2019-05-30T04:30:39.397Z,3.03
2019-05-30T04:33:25.134Z,3.43
2019-05-30T04:35:42.705Z,2.97
2019-05-30T04:38:14.661Z,2.90
2019-05-30T04:40:45.594Z,2.90
2019-05-30T04:43:18.033Z,3.10
2019-05-30T04:45:48.979Z,2.93
2019-05-30T04:48:21.356Z,3.00
2019-05-30T04:50:52.413Z,2.60
2019-05-30T04:53:23.247Z,2.70
2019-05-30T04:55:55.964Z,2.47
2019-05-30T04:58:26.868Z,2.43
2019-05-30T05:00:57.681Z,2.27
2019-05-30T05:03:44.578Z,2.50
2019-05-30T05:06:02.207Z,2.03
2019-05-30T05:08:33.152Z,2.13
2019-05-30T05:11:03.936Z,2.27
2019-05-30T05:13:34.732Z,2.43
2019-05-30T05:16:22.083Z,2.17
2019-05-30T05:18:38.052Z,2.03
2019-05-30T05:21:08.897Z,2.17
2019-05-30T05:23:39.752Z,2.07
2019-05-30T05:26:10.613Z,2.60
2019-05-30T05:28:41.420Z,1.60
2019-05-30T05:31:12.204Z,2.20
2019-05-30T05:33:56.117Z,2.23
2019-05-30T05:36:21.274Z,2.07
2019-05-30T05:38:52.112Z,2.10
2019-05-30T05:41:24.017Z,2.27
2019-05-30T05:43:55.211Z,1.93
2019-05-30T05:46:25.982Z,1.90
2019-05-30T05:48:56.782Z,1.90
2019-05-30T05:51:28.928Z,1.77
2019-05-30T05:54:00.051Z,1.77
2019-05-30T05:56:30.857Z,1.93
2019-05-30T05:59:01.652Z,1.70
2019-05-30T06:01:32.433Z,1.90
2019-05-30T06:04:12.830Z,1.67
2019-05-30T06:06:35.917Z,1.90
2019-05-30T06:09:08.005Z,1.70
2019-05-30T06:11:39.078Z,2.17
2019-05-30T06:14:09.846Z,1.67
2019-05-30T06:16:40.687Z,2.10
2019-05-30T06:19:11.624Z,1.70
2019-05-30T06:21:53.582Z,2.00
2019-05-30T06:24:15.961Z,1.80
2019-05-30T06:26:46.862Z,1.80
2019-05-30T06:29:17.953Z,2.00
2019-05-30T06:31:48.913Z,1.60
2019-05-30T06:34:30.219Z,2.00
2019-05-30T06:36:52.448Z,2.00
2019-05-30T06:39:23.524Z,2.23
2019-05-30T06:41:54.513Z,2.00
2019-05-30T06:44:26.034Z,1.80
2019-05-30T06:46:57.025Z,2.00
2019-05-30T06:49:29.019Z,2.00
2019-05-30T06:52:00.165Z,2.10
2019-05-30T06:54:31.603Z,1.87
2019-05-30T06:57:04.663Z,3.23
2019-05-30T06:59:35.513Z,2.00
2019-05-30T07:02:06.381Z,1.93
2019-05-30T07:04:50.749Z,1.97
2019-05-30T07:07:09.961Z,2.00
2019-05-30T07:09:40.968Z,2.30
2019-05-30T07:12:12.163Z,2.03
2019-05-30T07:14:43.178Z,2.13
2019-05-30T07:17:15.207Z,2.07
2019-05-30T07:19:46.134Z,1.90
2019-05-30T07:22:17.019Z,2.30
2019-05-30T07:24:47.962Z,2.37
2019-05-30T07:27:18.967Z,2.40
2019-05-30T07:29:49.832Z,3.73
2019-05-30T07:32:20.747Z,2.40
2019-05-30T07:35:05.567Z,2.40
2019-05-30T07:37:24.489Z,2.50
2019-05-30T07:39:55.503Z,2.77
2019-05-30T07:42:26.657Z,3.00
2019-05-30T07:44:57.498Z,2.97
2019-05-30T07:47:28.484Z,2.73
2019-05-30T07:49:59.269Z,3.00
2019-05-30T07:52:30.621Z,2.60
2019-05-30T07:55:01.458Z,2.70
2019-05-30T07:57:32.927Z,2.60
2019-05-30T08:00:04.804Z,3.03
2019-05-30T08:02:35.830Z,2.50
2019-05-30T08:05:22.784Z,2.93
2019-05-30T08:07:41.951Z,3.20
2019-05-30T08:10:13.051Z,3.60
2019-05-30T08:12:43.879Z,3.27
2019-05-30T08:15:15.338Z,3.20
2019-05-30T08:17:47.367Z,3.40
2019-05-30T08:20:18.502Z,3.43
2019-05-30T08:22:49.385Z,4.33
2019-05-30T08:25:20.254Z,4.63
2019-05-30T08:27:51.279Z,5.33
2019-05-30T08:30:23.642Z,4.83
2019-05-30T08:32:54.527Z,4.90
2019-05-30T08:35:39.243Z,5.00
2019-05-30T08:37:57.884Z,4.00
2019-05-30T08:40:29.112Z,4.70
2019-05-30T08:43:00.193Z,4.63
2019-05-30T08:45:31.638Z,5.10
2019-05-30T08:48:02.842Z,5.80
2019-05-30T08:50:34.198Z,5.63
2019-05-30T08:53:05.415Z,5.37
2019-05-30T08:55:36.472Z,5.73
2019-05-30T08:58:07.480Z,5.90
2019-05-30T09:00:39.454Z,7.33
2019-05-30T09:03:10.385Z,6.07
2019-05-30T09:05:58.215Z,6.60
2019-05-30T09:08:16.177Z,7.23
2019-05-30T09:10:47.008Z,6.93
2019-05-30T09:13:17.870Z,7.90
2019-05-30T09:15:48.750Z,8.53
2019-05-30T09:18:19.717Z,8.13
2019-05-30T09:20:50.674Z,9.30
2019-05-30T09:23:21.600Z,9.03
2019-05-30T09:25:52.613Z,9.70
2019-05-30T09:28:23.594Z,9.90
2019-05-30T09:30:55.907Z,9.20
2019-05-30T09:33:28.283Z,9.50
2019-05-30T09:36:11.996Z,9.50
2019-05-30T09:38:32.344Z,9.80
2019-05-30T09:41:03.306Z,9.80
2019-05-30T09:43:34.241Z,9.40
2019-05-30T09:46:05.250Z,10.80
2019-05-30T09:48:36.158Z,10.03
2019-05-30T09:51:12.475Z,9.77
2019-05-30T09:53:43.874Z,9.80
2019-05-30T09:56:14.929Z,9.70
2019-05-30T09:58:47.751Z,9.00
2019-05-30T10:01:18.615Z,8.47
2019-05-30T10:03:50.221Z,7.33
2019-05-30T10:06:29.312Z,8.43
2019-05-30T10:08:53.987Z,7.57
2019-05-30T10:11:24.804Z,7.73
2019-05-30T10:13:56.808Z,6.47
2019-05-30T10:16:27.782Z,6.93
2019-05-30T10:18:58.663Z,7.27
2019-05-30T10:21:29.491Z,7.37
2019-05-30T10:24:00.462Z,6.40
2019-05-30T10:26:31.503Z,7.20
2019-05-30T10:29:02.405Z,8.33
2019-05-30T10:31:33.330Z,7.63
2019-05-30T10:34:04.536Z,8.07
2019-05-30T10:36:43.719Z,7.40
2019-05-30T10:39:08.866Z,8.10
2019-05-30T10:41:39.753Z,7.83
2019-05-30T10:44:10.539Z,8.27
2019-05-30T10:46:41.551Z,8.30
2019-05-30T10:49:12.608Z,9.13
2019-05-30T10:51:43.606Z,8.53
2019-05-30T10:54:14.703Z,8.03
2019-05-30T10:56:53.609Z,7.80
2019-05-30T10:59:24.736Z,7.80
2019-05-30T11:01:56.671Z,8.70
2019-05-30T11:04:28.579Z,7.87
2019-05-30T11:07:37.636Z,8.07
2019-05-30T11:10:12.711Z,7.40
2019-05-30T11:12:43.601Z,7.97
2019-05-30T11:15:15.317Z,7.63
2019-05-30T11:17:47.221Z,7.50
2019-05-30T11:20:22.636Z,7.17
2019-05-30T11:22:54.589Z,7.10
2019-05-30T11:25:25.742Z,6.73
2019-05-30T11:27:58.938Z,7.63
2019-05-30T11:30:30.262Z,6.90
2019-05-30T11:33:01.054Z,6.90
2019-05-30T11:35:32.978Z,6.77
2019-05-30T11:38:04.013Z,6.37
2019-05-30T11:40:34.939Z,7.67
2019-05-30T11:43:05.986Z,6.70
2019-05-30T11:45:36.965Z,7.47
2019-05-30T11:48:07.790Z,6.63
2019-05-30T11:50:39.261Z,7.53
2019-05-30T11:53:15.567Z,7.60
2019-05-30T11:55:47.247Z,7.63
2019-05-30T11:58:19.829Z,6.67
2019-05-30T12:00:52.970Z,7.70
2019-05-30T12:03:23.719Z,7.50
2019-05-30T12:05:55.175Z,6.80
2019-05-30T12:08:27.649Z,7.00
2019-05-30T12:11:05.289Z,7.20
2019-05-30T12:13:37.375Z,8.57
2019-05-30T12:16:08.285Z,8.17
2019-05-30T12:18:39.294Z,9.60
2019-05-30T12:21:10.140Z,8.80
2019-05-30T12:23:40.933Z,9.20
2019-05-30T12:26:11.769Z,8.90
2019-05-30T12:28:45.416Z,8.13
2019-05-30T12:31:16.421Z,8.23
2019-05-30T12:33:47.343Z,7.07
2019-05-30T12:36:18.212Z,7.13
2019-05-30T12:38:49.081Z,6.90
2019-05-30T12:41:20.920Z,6.50
2019-05-30T12:44:04.397Z,6.47
2019-05-30T12:46:36.353Z,6.07
2019-05-30T12:49:07.525Z,6.17
2019-05-30T12:51:39.453Z,6.50
2019-05-30T12:54:10.376Z,6.80
2019-05-30T12:56:41.690Z,6.67
2019-05-30T12:59:13.369Z,6.07
2019-05-30T13:01:45.726Z,6.50
2019-05-30T13:04:16.687Z,6.50
2019-05-30T13:06:47.644Z,5.93
2019-05-30T13:09:19.928Z,6.13
2019-05-30T13:11:54.391Z,5.30
2019-05-30T13:14:25.359Z,6.20
2019-05-30T13:16:57.452Z,6.57
2019-05-30T13:19:28.818Z,6.00
2019-05-30T13:22:01.254Z,5.97
2019-05-30T13:24:32.307Z,5.83
2019-05-30T13:27:03.873Z,5.67
2019-05-30T13:29:45.843Z,5.97
2019-05-30T13:32:16.663Z,6.50
2019-05-30T13:34:47.627Z,6.20
2019-05-30T13:37:20.330Z,5.80
2019-05-30T13:39:51.309Z,5.93
2019-05-30T13:42:22.410Z,6.47
2019-05-30T13:45:02.171Z,5.77
2019-05-30T13:47:34.509Z,7.00
2019-05-30T13:50:09.744Z,7.17
2019-05-30T13:52:38.686Z,7.07
2019-05-30T13:55:10.348Z,6.93
2019-05-30T13:57:41.395Z,6.30
2019-05-30T14:00:13.076Z,7.00
2019-05-30T14:02:45.314Z,6.40
2019-05-30T14:05:17.884Z,6.60
2019-05-30T14:07:48.852Z,6.70
2019-05-30T14:10:19.750Z,6.27
2019-05-30T14:12:51.747Z,6.23
2019-05-30T14:15:23.009Z,5.97
2019-05-30T14:17:54.002Z,6.47
2019-05-30T14:20:25.120Z,6.10
2019-05-30T14:22:57.238Z,5.57
2019-05-30T14:25:28.200Z,6.57
2019-05-30T14:28:09.863Z,6.33
2019-05-30T14:30:40.812Z,5.97
2019-05-30T14:33:12.340Z,6.10
2019-05-30T14:35:43.244Z,6.03
2019-05-30T14:38:16.827Z,6.37
2019-05-30T14:40:47.767Z,6.47
2019-05-30T14:43:19.747Z,6.00
2019-05-30T14:45:57.587Z,6.20
2019-05-30T14:48:28.389Z,6.80
2019-05-30T14:50:59.261Z,7.17
2019-05-30T14:53:30.088Z,7.13
2019-05-30T14:56:02.402Z,6.87
2019-05-30T14:58:33.352Z,7.47
2019-05-30T15:01:05.055Z,6.47
2019-05-30T15:03:36.066Z,6.93
2019-05-30T15:06:09.209Z,6.80
2019-05-30T15:08:39.768Z,7.37
2019-05-30T15:11:11.740Z,6.83
2019-05-30T15:13:43.098Z,6.33
2019-05-30T15:16:13.930Z,6.83
2019-05-30T15:18:46.247Z,6.90
2019-05-30T15:21:17.139Z,6.90
2019-05-30T15:23:59.141Z,7.00
2019-05-30T15:26:30.163Z,6.50
2019-05-30T15:29:01.092Z,7.00
2019-05-30T15:31:31.990Z,6.20
2019-05-30T15:34:13.077Z,5.93
2019-05-30T15:36:46.711Z,6.33
2019-05-30T15:39:32.258Z,6.27
2019-05-30T15:41:56.962Z,6.60
2019-05-30T15:44:27.896Z,7.00
2019-05-30T15:46:58.800Z,6.93
2019-05-30T15:52:18.999Z,7.30
2019-05-30T15:54:49.892Z,7.20
2019-05-30T15:57:20.756Z,7.67
2019-05-30T15:59:51.857Z,6.83
2019-05-30T16:02:22.717Z,7.13
2019-05-30T16:04:54.604Z,8.30
2019-05-30T16:07:25.467Z,7.63
2019-05-30T16:09:56.473Z,7.60
2019-05-30T16:12:27.411Z,7.77
2019-05-30T16:14:58.401Z,6.90
2019-05-30T16:17:32.909Z,6.77
2019-05-30T16:20:03.860Z,6.00
2019-05-30T16:22:35.100Z,6.87
2019-05-30T16:25:07.531Z,6.40
2019-05-30T16:27:38.564Z,6.80
2019-05-30T16:30:10.971Z,8.10
2019-05-30T16:32:42.408Z,7.33
2019-05-30T16:35:14.045Z,6.77
2019-05-30T16:37:45.403Z,7.27
2019-05-30T16:40:22.297Z,6.40
2019-05-30T16:42:54.294Z,6.57
2019-05-30T16:45:26.559Z,6.53
2019-05-30T16:47:57.702Z,6.90
2019-05-30T16:50:28.550Z,6.57
2019-05-30T16:52:59.488Z,6.57
2019-05-30T16:55:30.386Z,6.73
2019-05-30T16:58:01.406Z,6.43
2019-05-30T17:00:32.348Z,6.13
2019-05-30T17:03:03.289Z,6.87
2019-05-30T17:05:34.646Z,7.17
2019-05-30T17:08:18.623Z,5.70
2019-05-30T17:10:49.487Z,5.93
2019-05-30T17:13:22.220Z,7.00
2019-05-30T17:15:53.258Z,6.50
2019-05-30T17:18:29.470Z,6.20
2019-05-30T17:21:00.308Z,6.50
2019-05-30T17:23:31.219Z,5.87
2019-05-30T17:26:02.175Z,6.47
2019-05-30T17:28:33.209Z,5.63
2019-05-30T17:31:04.031Z,5.67
2019-05-30T17:33:35.177Z,5.87
2019-05-30T17:36:06.225Z,5.87
2019-05-30T17:38:38.401Z,6.07
2019-05-30T17:41:10.730Z,5.60
2019-05-30T17:43:41.770Z,5.00
2019-05-30T17:46:12.591Z,5.30
2019-05-30T17:48:43.644Z,5.27
2019-05-30T17:51:16.623Z,4.63
2019-05-30T17:53:47.860Z,4.97
2019-05-30T17:56:19.865Z,4.43
2019-05-30T17:58:51.137Z,4.57
2019-05-30T18:01:22.285Z,5.10
2019-05-30T18:03:53.620Z,4.40
2019-05-30T18:06:26.531Z,4.93
2019-05-30T18:08:58.103Z,4.50
2019-05-30T18:11:29.154Z,4.37
2019-05-30T18:14:01.137Z,4.50
2019-05-30T18:16:32.113Z,4.50
2019-05-30T18:19:03.077Z,4.17
2019-05-30T18:21:34.040Z,4.00
2019-05-30T18:24:05.170Z,4.50
2019-05-30T18:26:37.269Z,4.00
2019-05-30T18:29:11.786Z,3.93
2019-05-30T18:31:42.974Z,4.70
2019-05-30T18:34:13.877Z,4.27
2019-05-30T18:36:44.981Z,4.70
2019-05-30T18:39:17.015Z,3.90
2019-05-30T18:41:48.124Z,4.50
2019-05-30T18:44:19.392Z,4.60
2019-05-30T18:46:52.381Z,4.90
2019-05-30T18:49:23.495Z,4.50
2019-05-30T18:51:55.638Z,4.10
2019-05-30T18:54:26.824Z,4.20
2019-05-30T18:56:57.805Z,4.20
2019-05-30T18:59:29.030Z,3.97
2019-05-30T19:02:00.399Z,4.13
2019-05-30T19:04:31.912Z,3.67
2019-05-30T19:07:03.122Z,3.97
2019-05-30T19:09:34.304Z,4.20
2019-05-30T19:12:05.378Z,4.10
2019-05-30T19:14:37.501Z,3.53
2019-05-30T19:17:09.121Z,4.20
2019-05-30T19:19:40.201Z,3.90
2019-05-30T19:22:11.203Z,3.60
2019-05-30T19:24:42.214Z,3.87
2019-05-30T19:27:13.459Z,3.27
2019-05-30T19:29:45.914Z,3.47
2019-05-30T19:32:22.824Z,3.30
2019-05-30T19:34:54.637Z,3.17
2019-05-30T19:37:31.111Z,3.50
2019-05-30T19:40:02.290Z,3.50
2019-05-30T19:42:33.609Z,3.13
2019-05-30T19:45:04.846Z,3.53
2019-05-30T19:47:38.591Z,3.33
2019-05-30T19:50:11.706Z,3.20
2019-05-30T19:52:42.730Z,3.83
2019-05-30T19:55:15.769Z,3.47
2019-05-30T19:57:47.047Z,3.90
2019-05-30T20:00:18.503Z,3.60
2019-05-30T20:02:49.758Z,3.30
2019-05-30T20:05:20.898Z,3.60
2019-05-30T20:07:52.144Z,3.10
2019-05-30T20:10:23.273Z,3.90
2019-05-30T20:12:54.281Z,3.43
2019-05-30T20:15:25.351Z,3.67
2019-05-30T20:17:56.266Z,3.50
2019-05-30T20:20:27.127Z,3.60
2019-05-30T20:22:58.038Z,3.00
2019-05-30T20:25:29.103Z,3.50
2019-05-30T20:28:00.156Z,3.47
2019-05-30T20:30:31.331Z,3.33
2019-05-30T20:33:02.407Z,3.23
2019-05-30T20:35:34.737Z,3.43
2019-05-30T20:38:06.335Z,3.20
2019-05-30T20:40:37.205Z,2.90
2019-05-30T20:43:10.605Z,3.10
2019-05-30T20:45:46.946Z,3.20
2019-05-30T20:48:15.370Z,3.17
2019-05-30T20:50:47.408Z,3.43
2019-05-30T20:53:20.435Z,3.33
2019-05-30T20:55:50.873Z,3.10
2019-05-30T20:58:23.654Z,3.40
2019-05-30T21:00:55.739Z,3.23
2019-05-30T21:03:27.703Z,2.93
2019-05-30T21:05:58.893Z,3.47
2019-05-30T21:08:31.593Z,2.93
2019-05-30T21:11:03.135Z,3.87
2019-05-30T21:13:36.172Z,2.87
2019-05-30T21:16:09.947Z,3.20
2019-05-30T21:18:42.451Z,3.17
2019-05-30T21:21:13.549Z,3.70
2019-05-30T21:23:44.509Z,3.03
2019-05-30T21:26:16.362Z,3.47
2019-05-30T21:28:47.354Z,2.97
2019-05-30T21:31:18.368Z,3.43
2019-05-30T21:33:49.397Z,3.13
2019-05-30T21:36:20.447Z,3.17
2019-05-30T21:38:51.353Z,2.80
2019-05-30T21:41:22.258Z,3.40
2019-05-30T21:43:53.435Z,3.43
2019-05-30T21:46:24.531Z,3.10
2019-05-30T21:48:57.237Z,2.80
2019-05-30T21:51:28.317Z,3.03
2019-05-30T21:53:59.592Z,3.37
2019-05-30T21:56:30.572Z,3.00
2019-05-30T21:59:01.659Z,2.83
2019-05-30T22:01:34.787Z,2.97
2019-05-30T22:04:06.781Z,3.60
2019-05-30T22:06:38.222Z,3.30
2019-05-30T22:09:11.526Z,3.80
2019-05-30T22:11:43.521Z,3.63
2019-05-30T22:14:14.673Z,3.10
2019-05-30T22:16:47.933Z,3.40
2019-05-30T22:19:19.153Z,3.13
2019-05-30T22:21:50.315Z,2.47
2019-05-30T22:24:22.382Z,2.77
2019-05-30T22:26:53.239Z,2.87
2019-05-30T22:29:24.127Z,2.63
2019-05-30T22:31:55.103Z,2.90
2019-05-30T22:34:27.753Z,2.27
2019-05-30T22:36:58.836Z,3.17
2019-05-30T22:39:29.701Z,2.47
2019-05-30T22:42:01.946Z,2.50
2019-05-30T22:44:32.800Z,2.60
2019-05-30T22:47:04.657Z,2.40
2019-05-30T22:49:35.520Z,2.23
2019-05-30T22:52:06.309Z,2.57
2019-05-30T22:54:38.139Z,2.50
2019-05-30T22:57:08.985Z,2.03
2019-05-30T22:59:39.865Z,2.00
2019-05-30T23:02:10.763Z,2.20
2019-05-30T23:04:41.723Z,2.10
2019-05-30T23:07:12.657Z,2.50
2019-05-30T23:09:43.709Z,2.17
2019-05-30T23:12:14.514Z,1.97
2019-05-30T23:14:45.881Z,2.07
2019-05-30T23:17:16.707Z,2.07
2019-05-30T23:19:48.504Z,3.00
2019-05-30T23:22:19.545Z,2.00
2019-05-30T23:24:52.254Z,1.93
2019-05-30T23:27:22.807Z,2.30
2019-05-30T23:29:53.967Z,2.07
2019-05-30T23:32:24.913Z,2.23
2019-05-30T23:34:56.859Z,2.33
2019-05-30T23:37:27.637Z,2.00
2019-05-30T23:39:58.960Z,2.10
2019-05-30T23:42:29.954Z,2.10
2019-05-30T23:45:03.727Z,2.07
2019-05-30T23:47:34.651Z,2.10
2019-05-30T23:50:06.218Z,1.97
2019-05-30T23:52:37.006Z,2.40
2019-05-30T23:55:08.146Z,2.00
2019-05-30T23:57:40.047Z,1.90
